首页
METAR-TAF:

METAR-TAF

机场 :

加雅, 印度

纬度: 24-44-40N, 经度: 84-57-04E, 海拔: 116米

当前天气观测

该预报发布于1小时和9分钟前的21:00 UTC
风速3节,风向
温度 30°C
湿度 75%
气压 1001 hPa
能見度: 4000
少量云层高于2000英尺
散云层高于10000英尺
霾,

METAR: VEGY 222100Z 09003KT 4000 HZ FEW020 SCT100 30/25 Q1001

时间: 03:39 (22:09 UTC)

预报

该预报发布于8小时和9分钟前的14:00 UTC
预报有效从22日的 15点(UTC)到 23日的 00点(UTC)
风速10节,风向
能見度: 4000
散云层高于1800英尺
少量云层高于3000英尺, 积雨云.
多云层高于10000英尺
雷暴, 小雨, 轻雾
成为
从 22日的 21点(UTC)到 22日的 23点(UTC)
能見度: 3000
小雨, 轻雾,

TAF: VEGY 221400Z 2215/2300 09010KT 4000 -TSRA BR SCT018 FEW030CB BKN100 BECMG 2221/2223 3000 -RA BR

超过4000个机场的气象观测和天气预报(METAR&TAF报告)。

可查询的气象台以黄色和红色小点在地图上表示。

将鼠标移到小点上方,可查看气象台名称。

然后点击查看天气观测和预报。

如需切换地图:点击带黑十字的绿色按钮放大地图;点击带横线的绿色按钮缩小地图;或者点击绿色箭头查看邻近地区的地图。


METAR-TAF: